Time;durP1;ratioP1;P1;durP2;ratioP2;P2;SDS_P1;SDS_P2;PMS_P1;PMS_P2;Temp;Humidity;BMP_temperature;BMP_pressure;BME280_temperature;BME280_humidity;BME280_pressure;Samples;Min_cycle;Max_cycle;Signal;HPM_P1;HPM_P2
2023/08/10 00:01:00;;;;;;;5.88;2.50;;;;;;;14.39;100.00;100749.03;4951240;28;20497;-79
2023/08/10 00:03:28;;;;;;;5.75;2.28;;;;;;;14.42;100.00;100749.06;4957749;28;20225;-78
2023/08/10 00:05:55;;;;;;;13.23;4.65;;;;;;;14.39;100.00;100749.94;4947666;28;20236;-79
2023/08/10 00:08:22;;;;;;;4.40;1.83;;;;;;;14.39;100.00;100757.91;4979351;28;20312;-79
2023/08/10 00:10:52;;;;;;;10.45;3.63;;;;;;;14.43;100.00;100755.28;4941312;28;20221;-78
2023/08/10 00:13:19;;;;;;;5.97;2.42;;;;;;;14.35;100.00;100761.47;4957212;28;20232;-79
2023/08/10 00:15:45;;;;;;;8.13;3.03;;;;;;;14.35;100.00;100763.25;4937034;28;20243;-79
2023/08/10 00:18:13;;;;;;;6.28;2.67;;;;;;;14.29;100.00;100755.22;4939124;28;20244;-79
2023/08/10 00:20:40;;;;;;;6.85;2.75;;;;;;;14.31;100.00;100769.44;4946127;28;20222;-79
2023/08/10 00:23:07;;;;;;;7.03;2.88;;;;;;;14.33;100.00;100778.31;4942156;28;20590;-77
2023/08/10 00:25:33;;;;;;;5.60;2.22;;;;;;;14.29;100.00;100768.53;4949622;28;20329;-78
2023/08/10 00:28:00;;;;;;;8.30;3.25;;;;;;;14.34;100.00;100782.75;4933213;28;20242;-79
2023/08/10 00:30:28;;;;;;;5.15;2.03;;;;;;;14.38;100.00;100784.53;4939895;28;20245;-80
2023/08/10 00:32:55;;;;;;;11.73;4.50;;;;;;;14.33;100.00;100784.53;4940185;28;20241;-77
2023/08/10 00:35:23;;;;;;;4.90;2.17;;;;;;;14.34;100.00;100785.41;4947715;28;20320;-79
2023/08/10 00:37:50;;;;;;;9.13;3.30;;;;;;;14.36;100.00;100786.28;4943127;28;20232;-79
2023/08/10 00:40:17;;;;;;;8.00;3.35;;;;;;;14.33;100.00;100794.28;4955139;28;20241;-79
2023/08/10 00:42:44;;;;;;;7.25;2.85;;;;;;;14.31;100.00;100788.06;4954259;28;20260;-78
2023/08/10 00:45:11;;;;;;;6.85;2.83;;;;;;;14.30;100.00;100786.25;4943114;28;20279;-79
2023/08/10 00:47:38;;;;;;;5.57;2.15;;;;;;;14.27;100.00;100789.81;4946840;28;20310;-79
2023/08/10 00:50:06;;;;;;;7.70;3.22;;;;;;;14.23;100.00;100787.16;4947196;28;20237;-79
2023/08/10 00:52:33;;;;;;;6.07;2.55;;;;;;;14.19;100.00;100788.03;4947658;28;20240;-79
2023/08/10 00:55:04;;;;;;;10.77;4.05;;;;;;;14.18;100.00;100791.59;4951284;28;20324;-79
2023/08/10 00:57:31;;;;;;;5.90;3.13;;;;;;;14.11;100.00;100798.69;4943930;28;20300;-77
2023/08/10 00:59:58;;;;;;;12.55;5.38;;;;;;;14.06;100.00;100792.47;4943312;28;20240;-79
2023/08/10 01:02:25;;;;;;;5.57;2.30;;;;;;;14.04;100.00;100787.16;4953134;28;20667;-79
2023/08/10 01:04:52;;;;;;;9.50;3.67;;;;;;;13.87;100.00;100783.59;4948116;28;20229;-79
2023/08/10 01:07:37;;;;;;;4.65;2.10;;;;;;;13.94;100.00;100788.03;4955005;28;20261;-79
2023/08/10 01:10:13;;;;;;;6.53;2.83;;;;;;;13.94;100.00;100790.69;4951345;28;20308;-79
2023/08/10 01:12:53;;;;;;;4.03;1.92;;;;;;;13.97;100.00;100793.34;4940808;28;20224;-79
2023/08/10 01:15:31;;;;;;;5.45;2.45;;;;;;;13.94;100.00;100793.34;4948247;28;20248;-78
2023/08/10 01:17:59;;;;;;;11.00;4.18;;;;;;;13.97;100.00;100800.44;4968719;28;20238;-79
2023/08/10 01:20:28;;;;;;;4.53;2.08;;;;;;;13.94;100.00;100795.13;4952711;28;20332;-78
2023/08/10 01:23:11;;;;;;;9.52;3.83;;;;;;;13.93;100.00;100799.56;4948479;28;20332;-79
2023/08/10 01:25:38;;;;;;;6.10;2.67;;;;;;;13.91;100.00;100801.31;4940983;28;20312;-78
2023/08/10 01:28:05;;;;;;;5.60;2.42;;;;;;;13.86;100.00;100796.88;4955051;28;20242;-79
2023/08/10 01:30:31;;;;;;;4.80;1.95;;;;;;;13.91;100.00;100803.97;4957459;28;20233;-79
2023/08/10 01:32:58;;;;;;;12.70;4.97;;;;;;;13.86;100.00;100802.22;4979438;28;20327;-79
2023/08/10 01:35:25;;;;;;;5.97;2.42;;;;;;;13.82;100.00;100795.09;4979158;28;20234;-78
2023/08/10 01:37:52;;;;;;;11.18;3.75;;;;;;;13.77;100.00;100806.63;4951440;28;20233;-79
2023/08/10 01:40:19;;;;;;;4.55;1.80;;;;;;;13.82;100.00;100819.91;4962712;28;20237;-78
2023/08/10 01:42:46;;;;;;;11.50;4.53;;;;;;;13.86;100.00;100820.81;4934331;28;20253;-79
2023/08/10 01:45:13;;;;;;;8.05;3.08;;;;;;;13.78;100.00;100829.66;4937073;28;20332;-79
2023/08/10 01:47:46;;;;;;;5.22;2.08;;;;;;;13.68;100.00;100827.88;4939531;28;20324;-79
2023/08/10 01:50:15;;;;;;;5.68;2.28;;;;;;;13.61;100.00;100823.41;4950749;28;20327;-78
2023/08/10 01:52:51;;;;;;;6.55;2.70;;;;;;;13.50;100.00;100824.28;4945601;28;20304;-79
2023/08/10 01:55:18;;;;;;;12.02;4.75;;;;;;;13.41;100.00;100820.69;4952817;28;20272;-77
2023/08/10 01:57:45;;;;;;;8.82;3.40;;;;;;;13.32;100.00;100823.31;4948931;28;20242;-79
2023/08/10 02:00:12;;;;;;;9.25;3.47;;;;;;;13.32;100.00;100820.66;4950426;28;20233;-79
2023/08/10 02:02:39;;;;;;;5.47;2.38;;;;;;;13.42;100.00;100826.91;4961131;28;20272;-79
2023/08/10 02:05:06;;;;;;;5.93;2.22;;;;;;;13.52;100.00;100838.44;4945250;28;20286;-78
2023/08/10 02:07:33;;;;;;;5.03;2.00;;;;;;;13.51;100.00;100828.69;4948792;28;20232;-79
2023/08/10 02:10:00;;;;;;;12.70;4.57;;;;;;;13.54;100.00;100837.56;4955865;28;20236;-79
2023/08/10 02:12:27;;;;;;;5.30;2.10;;;;;;;13.47;100.00;100845.50;4960521;28;20229;-79
2023/08/10 02:14:58;;;;;;;12.05;4.38;;;;;;;13.32;100.00;100841.03;4954842;28;20256;-79
2023/08/10 02:17:26;;;;;;;5.70;2.35;;;;;;;13.33;100.00;100840.16;4956708;28;20245;-79
2023/08/10 02:19:53;;;;;;;8.82;3.30;;;;;;;13.41;100.00;100855.22;4949811;28;20252;-78
2023/08/10 02:22:19;;;;;;;5.40;2.17;;;;;;;13.30;100.00;100840.13;4960991;28;20240;-79
2023/08/10 02:24:46;;;;;;;10.13;3.97;;;;;;;13.29;100.00;100838.34;4971019;28;20225;-78
2023/08/10 02:27:13;;;;;;;4.95;2.05;;;;;;;13.23;100.00;100835.69;4945639;28;20415;-79
2023/08/10 02:29:40;;;;;;;8.20;3.22;;;;;;;13.10;100.00;100834.69;4952357;28;20234;-77
2023/08/10 02:32:07;;;;;;;7.95;3.45;;;;;;;13.10;100.00;100830.28;4957570;28;20243;-76
2023/08/10 02:34:33;;;;;;;7.15;3.17;;;;;;;13.08;100.00;100831.16;4978380;28;20249;-77
2023/08/10 02:37:00;;;;;;;11.52;3.80;;;;;;;13.07;100.00;100832.91;4949927;28;20229;-76
2023/08/10 02:39:27;;;;;;;6.13;2.47;;;;;;;13.06;100.00;100833.78;4955828;28;20237;-77
2023/08/10 02:41:53;;;;;;;11.35;4.35;;;;;;;13.03;100.00;100839.09;4947673;28;20328;-77
2023/08/10 02:44:20;;;;;;;7.13;2.45;;;;;;;12.96;100.00;100839.91;4943620;28;20225;-78
2023/08/10 02:46:47;;;;;;;10.73;4.30;;;;;;;13.01;100.00;100840.84;4931441;28;20246;-80
2023/08/10 02:49:14;;;;;;;6.10;2.53;;;;;;;13.06;100.00;100852.38;4931689;28;20245;-79
2023/08/10 02:51:40;;;;;;;6.32;2.65;;;;;;;13.00;100.00;100854.06;4939689;28;20234;-79
2023/08/10 02:54:07;;;;;;;7.43;2.92;;;;;;;12.98;100.00;100858.50;4934525;28;20242;-79
2023/08/10 02:56:34;;;;;;;5.90;2.65;;;;;;;12.95;100.00;100861.13;4942010;28;20238;-79
2023/08/10 02:59:01;;;;;;;8.90;3.80;;;;;;;13.04;100.00;100867.41;4934877;28;20579;-79
2023/08/10 03:01:28;;;;;;;6.65;2.47;;;;;;;13.01;100.00;100864.75;4939153;28;20237;-79
2023/08/10 03:03:54;;;;;;;14.73;5.50;;;;;;;13.08;100.00;100882.47;4932368;28;20300;-77
2023/08/10 03:06:21;;;;;;;6.68;2.63;;;;;;;13.08;100.00;100886.91;4944202;28;20233;-79
2023/08/10 03:08:48;;;;;;;10.40;4.15;;;;;;;13.11;100.00;100894.88;4953625;28;20706;-79
2023/08/10 03:11:14;;;;;;;4.88;1.88;;;;;;;12.98;100.00;100885.94;4955414;28;20240;-78
2023/08/10 03:13:41;;;;;;;6.82;2.78;;;;;;;12.99;100.00;100892.13;4974396;28;20244;-74
2023/08/10 03:16:08;;;;;;;10.50;4.90;;;;;;;12.99;100.00;100885.03;4933862;28;20269;-77
2023/08/10 03:18:35;;;;;;;6.53;2.58;;;;;;;13.07;100.00;100895.75;4958989;28;20236;-75
2023/08/10 03:21:01;;;;;;;10.85;4.45;;;;;;;13.08;100.00;100900.19;4946729;28;20253;-75
2023/08/10 03:23:28;;;;;;;5.95;2.53;;;;;;;13.12;100.00;100905.53;4955140;28;20225;-79
2023/08/10 03:25:55;;;;;;;10.80;4.13;;;;;;;13.13;100.00;100901.09;4942586;28;20233;-81
2023/08/10 03:28:22;;;;;;;11.40;4.68;;;;;;;13.09;100.00;100912.56;4954017;28;20571;-78
2023/08/10 03:30:49;;;;;;;9.52;3.72;;;;;;;13.05;100.00;100906.34;4938155;28;20242;-78
2023/08/10 03:33:16;;;;;;;5.90;2.28;;;;;;;12.92;100.00;100901.81;4965758;28;20234;-80
2023/08/10 03:35:43;;;;;;;8.13;2.97;;;;;;;12.80;100.00;100888.47;4957125;28;20233;-79
2023/08/10 03:38:10;;;;;;;5.50;2.45;;;;;;;12.91;100.00;100897.38;4945058;28;20241;-80
2023/08/10 03:40:37;;;;;;;5.90;2.55;;;;;;;12.93;100.00;100914.22;4949607;28;20240;-79
2023/08/10 03:43:03;;;;;;;6.82;2.92;;;;;;;12.88;100.00;100907.97;4946928;28;20234;-77
2023/08/10 03:45:30;;;;;;;5.47;2.25;;;;;;;12.88;100.00;100912.41;4937585;28;20233;-79
2023/08/10 03:47:57;;;;;;;13.70;5.07;;;;;;;12.79;100.00;100910.56;4938341;28;20241;-80
2023/08/10 03:50:24;;;;;;;4.50;2.00;;;;;;;12.79;100.00;100919.41;4954653;28;20272;-81
2023/08/10 03:52:51;;;;;;;13.73;4.90;;;;;;;12.79;100.00;100915.88;4938022;28;20304;-80
2023/08/10 03:55:19;;;;;;;6.15;2.50;;;;;;;12.79;100.00;100916.75;4957595;28;20728;-79
2023/08/10 03:57:46;;;;;;;9.75;3.83;;;;;;;12.77;100.00;100925.59;4949413;28;20225;-79
2023/08/10 04:00:13;;;;;;;10.10;4.18;;;;;;;12.81;100.00;100925.63;4956026;28;20235;-78
2023/08/10 04:02:40;;;;;;;8.13;3.38;;;;;;;12.81;100.00;100928.28;4950040;28;20240;-77
2023/08/10 04:05:07;;;;;;;7.80;3.40;;;;;;;12.83;100.00;100930.94;4946263;28;20252;-77
2023/08/10 04:07:33;;;;;;;5.45;2.47;;;;;;;12.83;100.00;100934.50;4958177;28;20221;-77
2023/08/10 04:10:00;;;;;;;11.40;4.63;;;;;;;12.84;100.00;100938.03;4937746;28;20253;-77
2023/08/10 04:12:27;;;;;;;7.95;3.90;;;;;;;12.85;100.00;100942.47;4936334;28;20711;-78
2023/08/10 04:14:54;;;;;;;10.98;3.85;;;;;;;12.91;100.00;100954.91;4940399;28;20328;-76
2023/08/10 04:17:21;;;;;;;5.75;2.50;;;;;;;12.95;100.00;100962.00;4957910;28;20229;-77
2023/08/10 04:19:48;;;;;;;10.18;3.78;;;;;;;12.99;100.00;100969.13;4952915;28;20228;-77
2023/08/10 04:22:15;;;;;;;4.72;1.90;;;;;;;12.96;100.00;100969.97;4942329;28;20260;-79
2023/08/10 04:24:42;;;;;;;5.32;2.13;;;;;;;12.95;100.00;100978.81;4938027;28;20239;-78
2023/08/10 04:27:08;;;;;;;7.57;3.22;;;;;;;12.96;100.00;100983.25;4953839;28;20236;-79
2023/08/10 04:29:35;;;;;;;6.95;2.95;;;;;;;13.06;100.00;100989.56;4964089;28;20220;-78
2023/08/10 04:32:03;;;;;;;8.52;3.55;;;;;;;13.11;100.00;100998.44;4942224;28;20241;-79
2023/08/10 04:34:32;;;;;;;8.20;3.20;;;;;;;13.26;100.00;101003.03;4959701;28;20229;-79
2023/08/10 04:36:59;;;;;;;22.10;6.63;;;;;;;13.30;100.00;100999.50;4948026;28;20361;-80
2023/08/10 04:39:27;;;;;;;6.85;2.83;;;;;;;13.41;100.00;101009.31;4948200;28;20288;-80
2023/08/10 04:41:53;;;;;;;12.15;4.63;;;;;;;13.45;100.00;101012.91;4946673;28;20226;-80
2023/08/10 04:44:20;;;;;;;6.35;2.92;;;;;;;13.48;100.00;101012.91;4948344;28;20278;-79
2023/08/10 04:46:47;;;;;;;12.27;4.38;;;;;;;13.61;100.00;101014.75;4940937;28;20249;-79
2023/08/10 04:49:14;;;;;;;5.55;2.28;;;;;;;13.68;100.00;101016.56;4959710;28;20249;-80
2023/08/10 04:51:41;;;;;;;7.03;2.70;;;;;;;13.68;100.00;101008.59;4954080;28;20293;-78
2023/08/10 04:54:12;;;;;;;8.30;3.33;;;;;;;13.69;100.00;100998.88;4954017;28;20233;-78
2023/08/10 04:56:39;;;;;;;6.43;2.90;;;;;;;13.73;100.00;100990.91;4948764;28;20237;-78
2023/08/10 04:59:06;;;;;;;8.13;3.35;;;;;;;13.87;100.00;100996.28;4957003;28;20226;-78
2023/08/10 05:01:33;;;;;;;5.70;2.42;;;;;;;13.95;100.00;100996.31;4951711;28;20233;-78
2023/08/10 05:04:00;;;;;;;12.60;4.47;;;;;;;13.91;100.00;100995.41;4957316;28;20276;-77
2023/08/10 05:06:27;;;;;;;6.95;2.80;;;;;;;13.98;100.00;100996.34;4961194;28;20231;-76
2023/08/10 05:08:54;;;;;;;10.82;4.10;;;;;;;14.02;100.00;101003.44;4954640;28;20233;-78
2023/08/10 05:11:20;;;;;;;5.13;2.20;;;;;;;13.99;100.00;100992.78;4953900;28;20233;-77
2023/08/10 05:13:47;;;;;;;9.05;4.10;;;;;;;14.01;100.00;101002.56;4948778;28;20241;-77
2023/08/10 05:16:15;;;;;;;5.90;2.50;;;;;;;13.97;100.00;101000.75;4941924;28;20230;-77
2023/08/10 05:18:41;;;;;;;8.15;3.30;;;;;;;14.03;100.00;100997.25;4954526;28;20240;-77
2023/08/10 05:21:09;;;;;;;8.48;3.90;;;;;;;14.08;100.00;101001.69;4955179;28;20237;-79
2023/08/10 05:23:37;;;;;;;5.78;2.55;;;;;;;14.07;100.00;101002.56;4943664;28;20236;-79
2023/08/10 05:26:04;;;;;;;6.07;2.65;;;;;;;14.16;100.00;101009.69;4943173;28;20233;-78
2023/08/10 05:28:31;;;;;;;4.93;2.05;;;;;;;14.17;100.00;101021.22;4944309;28;20233;-77
2023/08/10 05:30:58;;;;;;;11.98;4.85;;;;;;;14.08;100.00;101022.09;4935820;28;20229;-79
2023/08/10 05:33:25;;;;;;;4.82;2.13;;;;;;;13.98;100.00;101023.81;4953083;28;20236;-80
2023/08/10 05:35:52;;;;;;;10.23;3.75;;;;;;;14.03;100.00;101027.38;4955866;28;20237;-79
2023/08/10 05:38:19;;;;;;;7.57;2.40;;;;;;;13.94;100.00;101034.44;4960354;28;20237;-79
2023/08/10 05:40:45;;;;;;;8.50;3.38;;;;;;;13.88;100.00;101035.28;4943061;28;20237;-78
2023/08/10 05:43:12;;;;;;;7.25;3.03;;;;;;;13.85;100.00;101034.38;4954073;28;20244;-79
2023/08/10 05:45:41;;;;;;;6.90;2.85;;;;;;;13.82;100.00;101035.25;4942958;28;20244;-77
2023/08/10 05:48:11;;;;;;;5.78;2.50;;;;;;;13.82;100.00;101042.34;4950737;28;20233;-79
2023/08/10 05:50:38;;;;;;;6.45;2.65;;;;;;;13.87;100.00;101045.91;4962813;28;20328;-78
2023/08/10 05:53:06;;;;;;;7.00;3.03;;;;;;;13.98;100.00;101058.38;4960437;28;20238;-79
2023/08/10 05:55:34;;;;;;;3.85;1.52;;;;;;;14.07;100.00;101063.75;4939055;28;20316;-78
2023/08/10 05:58:01;;;;;;;7.10;2.85;;;;;;;14.21;100.00;101082.44;4953202;28;20237;-78
2023/08/10 06:00:27;;;;;;;8.63;3.30;;;;;;;14.25;100.00;101081.56;4948531;28;20328;-79
2023/08/10 06:02:54;;;;;;;12.25;4.32;;;;;;;14.29;100.00;101088.69;4949875;28;20245;-78
2023/08/10 06:05:22;;;;;;;4.28;1.80;;;;;;;14.40;100.00;101105.59;4963151;28;20243;-79
2023/08/10 06:07:48;;;;;;;10.93;4.05;;;;;;;14.49;100.00;101099.47;4954554;28;20237;-78
2023/08/10 06:10:16;;;;;;;5.40;2.60;;;;;;;14.56;100.00;101108.38;4955065;28;20241;-79
2023/08/10 06:12:43;;;;;;;6.85;2.65;;;;;;;14.57;100.00;101099.50;4955007;28;20240;-78
2023/08/10 06:15:10;;;;;;;6.22;2.75;;;;;;;14.64;100.00;101106.63;4961841;28;20232;-78
2023/08/10 06:17:38;;;;;;;6.55;2.95;;;;;;;14.65;100.00;101095.06;4945955;28;20727;-78
2023/08/10 06:20:16;;;;;;;10.02;3.65;;;;;;;14.65;100.00;101097.75;4949906;28;20228;-78
2023/08/10 06:22:44;;;;;;;9.77;3.13;;;;;;;14.77;100.00;101102.22;4951810;28;20241;-76
2023/08/10 06:25:12;;;;;;;9.30;4.25;;;;;;;14.77;100.00;101108.41;4952175;28;20240;-76
2023/08/10 06:27:39;;;;;;;6.25;3.03;;;;;;;14.80;100.00;101103.09;4959376;28;20236;-76
2023/08/10 06:30:08;;;;;;;8.00;3.17;;;;;;;14.84;100.00;101104.88;4949448;28;20233;-78
2023/08/10 06:32:36;;;;;;;8.40;3.92;;;;;;;14.95;100.00;101107.56;4954945;28;20241;-76
2023/08/10 06:35:04;;;;;;;7.13;2.72;;;;;;;14.88;100.00;101098.69;4952498;28;20244;-76
2023/08/10 06:37:30;;;;;;;9.98;3.75;;;;;;;14.97;100.00;101097.81;4951170;28;20233;-76
2023/08/10 06:39:57;;;;;;;10.00;4.25;;;;;;;14.99;100.00;101096.94;4949745;28;20225;-78
2023/08/10 06:42:24;;;;;;;8.10;3.30;;;;;;;15.02;100.00;101090.72;4945677;28;20248;-78
2023/08/10 06:44:51;;;;;;;11.48;4.13;;;;;;;14.95;100.00;101100.47;4942243;28;20225;-76
2023/08/10 06:47:17;;;;;;;6.30;2.88;;;;;;;15.00;100.00;101105.81;4959415;28;20326;-78
2023/08/10 06:49:44;;;;;;;6.18;2.58;;;;;;;15.07;100.00;101110.25;4942757;28;20226;-77
2023/08/10 06:52:11;;;;;;;7.80;3.70;;;;;;;15.19;100.00;101109.38;4950466;28;20240;-77
2023/08/10 06:54:37;;;;;;;8.57;3.80;;;;;;;15.28;100.00;101106.72;4948647;28;20237;-77
2023/08/10 06:57:04;;;;;;;7.97;3.55;;;;;;;15.47;100.00;101107.63;4946631;28;20228;-77
2023/08/10 06:59:32;;;;;;;8.20;3.25;;;;;;;15.60;100.00;101115.66;4960570;28;20229;-76
2023/08/10 07:02:19;;;;;;;6.15;2.47;;;;;;;15.63;100.00;101104.13;4935094;28;20351;-77
2023/08/10 07:04:46;;;;;;;11.55;4.15;;;;;;;15.82;100.00;101103.19;4933434;28;20281;-76
2023/08/10 07:07:14;;;;;;;6.75;2.92;;;;;;;15.92;100.00;101098.72;4943270;28;20239;-77
2023/08/10 07:09:42;;;;;;;6.40;2.60;;;;;;;16.04;100.00;101093.38;4953598;28;20230;-78
2023/08/10 07:12:09;;;;;;;10.15;3.85;;;;;;;16.26;100.00;101095.06;4919663;28;20248;-77
2023/08/10 07:14:36;;;;;;;6.75;2.72;;;;;;;16.37;100.00;101084.34;4971878;28;20295;-77
2023/08/10 07:17:03;;;;;;;7.50;3.05;;;;;;;16.56;100.00;101075.34;4962522;28;20229;-77
2023/08/10 07:19:31;;;;;;;6.03;2.35;;;;;;;16.81;100.00;101073.47;4944499;28;20312;-78
2023/08/10 07:21:57;;;;;;;12.65;4.50;;;;;;;16.83;100.00;101047.63;4950961;28;20233;-76
2023/08/10 07:24:25;;;;;;;7.32;3.22;;;;;;;17.14;100.00;101051.00;4954012;28;20233;-76
2023/08/10 07:26:52;;;;;;;9.73;3.90;;;;;;;17.40;100.00;101032.03;4939439;28;20233;-77
2023/08/10 07:29:19;;;;;;;8.13;3.35;;;;;;;17.47;100.00;101015.03;4955558;28;20233;-77
2023/08/10 07:31:46;;;;;;;9.23;3.88;;;;;;;17.36;100.00;100990.19;4946779;28;20233;-77
2023/08/10 07:34:13;;;;;;;6.22;2.85;;;;;;;17.78;100.00;101002.25;4954959;28;20229;-77
2023/08/10 07:36:40;;;;;;;4.40;1.85;;;;;;;17.89;100.00;100989.63;4946828;28;20241;-77
2023/08/10 07:39:07;;;;;;;6.53;2.90;;;;;;;18.05;100.00;100968.03;4949026;28;20326;-77
2023/08/10 07:41:33;;;;;;;5.22;2.22;;;;;;;18.12;100.00;100941.16;4964204;28;20239;-76
2023/08/10 07:44:00;;;;;;;13.98;5.20;;;;;;;18.47;100.00;100945.16;4936506;28;20252;-77
2023/08/10 07:46:27;;;;;;;7.85;2.85;;;;;;;18.59;100.00;100918.19;4948807;28;20237;-77
2023/08/10 07:48:54;;;;;;;10.55;4.03;;;;;;;18.73;100.00;100913.50;4947717;28;20314;-78
2023/08/10 07:51:21;;;;;;;6.20;2.47;;;;;;;19.00;100.00;100919.31;4949290;28;20248;-77
2023/08/10 07:53:47;;;;;;;9.95;3.78;;;;;;;19.29;100.00;100903.56;4951922;28;20241;-78
2023/08/10 07:56:14;;;;;;;7.40;3.05;;;;;;;19.40;100.00;100864.00;4948672;28;20259;-78
2023/08/10 07:58:41;;;;;;;6.32;2.55;;;;;;;19.42;100.00;100832.66;4986420;28;20233;-76
2023/08/10 08:01:08;;;;;;;8.48;3.53;;;;;;;19.48;100.00;100815.56;4952921;28;20221;-78
2023/08/10 08:03:35;;;;;;;6.15;2.33;;;;;;;19.72;100.00;100815.09;4970116;28;20228;-77
2023/08/10 08:06:02;;;;;;;7.18;2.70;;;;;;;19.81;100.00;100827.41;4953774;28;20249;-78
2023/08/10 08:08:29;;;;;;;6.03;2.50;;;;;;;20.14;100.00;100858.84;4954660;28;20263;-78
2023/08/10 08:10:56;;;;;;;11.70;4.13;;;;;;;20.15;100.00;100800.66;4952834;28;20239;-78
2023/08/10 08:13:22;;;;;;;10.13;3.88;;;;;;;19.73;100.00;100703.25;4972633;28;20228;-78
2023/08/10 08:15:49;;;;;;;11.32;4.55;;;;;;;20.40;100.00;100790.22;4948205;28;20225;-77
2023/08/10 08:18:41;;;;;;;6.50;2.33;;;;;;;20.09;100.00;100696.97;4941315;28;20242;-78
2023/08/10 08:21:09;;;;;;;9.18;3.80;;;;;;;19.89;100.00;100625.94;4935079;28;20237;-78
2023/08/10 08:23:36;;;;;;;5.75;2.22;;;;;;;20.40;100.00;100680.97;4944459;28;20226;-78
2023/08/10 08:26:03;;;;;;;7.63;2.90;;;;;;;20.60;100.00;100634.72;4981815;28;20247;-77
2023/08/10 08:28:30;;;;;;;7.70;2.75;;;;;;;21.09;100.00;100639.53;4950494;28;20316;-78
2023/08/10 08:30:56;;;;;;;9.07;3.10;;;;;;;21.18;100.00;100627.63;4940460;28;20312;-78
2023/08/10 08:33:23;;;;;;;6.82;2.70;;;;;;;21.56;100.00;100641.69;4939057;28;20710;-78
2023/08/10 08:35:50;;;;;;;10.50;3.97;;;;;;;22.02;100.00;100673.31;4943705;28;20277;-77
2023/08/10 08:38:18;;;;;;;8.10;2.67;;;;;;;22.13;100.00;100646.09;4959833;28;20250;-78
2023/08/10 08:40:45;;;;;;;10.40;3.95;;;;;;;21.65;100.00;100504.09;4956270;28;20248;-78
2023/08/10 08:43:11;;;;;;;9.45;3.88;;;;;;;21.72;100.00;100489.50;4969173;28;20738;-78
2023/08/10 08:45:39;;;;;;;7.85;2.95;;;;;;;21.90;100.00;100523.84;4963194;28;20232;-78
2023/08/10 08:48:07;;;;;;;8.57;3.30;;;;;;;22.10;100.00;100538.41;4967560;28;20244;-77
2023/08/10 08:50:36;;;;;;;8.07;2.88;;;;;;;22.77;100.00;100598.75;4960820;28;20317;-78
2023/08/10 08:53:05;;;;;;;6.28;2.28;;;;;;;22.50;100.00;100500.09;4951281;28;20328;-77
2023/08/10 08:55:32;;;;;;;6.28;2.25;;;;;;;22.39;100.00;100499.63;4984208;28;20228;-77
2023/08/10 08:57:59;;;;;;;10.80;3.95;;;;;;;22.94;100.00;100520.81;4943062;28;20240;-77
2023/08/10 09:00:25;;;;;;;8.57;3.13;;;;;;;23.56;100.00;100574.06;4983864;28;20700;-78
2023/08/10 09:02:53;;;;;;;12.13;4.28;;;;;;;23.89;100.00;100560.06;4964132;28;20225;-76
2023/08/10 09:05:20;;;;;;;7.80;2.85;;;;;;;23.44;100.00;100364.00;4966569;28;20241;-78
2023/08/10 09:07:47;;;;;;;11.55;3.85;;;;;;;23.97;100.00;100452.53;4960815;28;20232;-78
2023/08/10 09:10:14;;;;;;;8.30;3.25;;;;;;;23.96;100.00;100318.44;4960178;28;20700;-77
2023/08/10 09:12:40;;;;;;;6.80;2.50;;;;;;;23.90;100.00;100276.38;4964034;28;20261;-77
2023/08/10 09:15:13;;;;;;;9.10;3.53;;;;;;;24.89;100.00;100468.88;4933277;28;20251;-77
2023/08/10 09:17:43;;;;;;;7.75;3.35;;;;;;;24.07;100.00;100181.00;4931180;28;20323;-78
2023/08/10 09:20:10;;;;;;;9.43;4.22;;;;;;;25.10;100.00;100387.63;4934854;28;20247;-74
2023/08/10 09:22:38;;;;;;;7.65;3.15;;;;;;;25.44;100.00;100375.91;4964568;28;20301;-77
2023/08/10 09:25:06;;;;;;;7.22;3.20;;;;;;;24.67;100.00;100094.13;4941724;28;20240;-77
2023/08/10 09:27:33;;;;;;;3.85;1.60;;;;;;;24.03;100.00;99936.31;4960835;28;20228;-77
2023/08/10 09:30:06;;;;;;;9.07;3.65;;;;;;;24.81;100.00;100078.91;4934781;28;20245;-78
2023/08/10 09:32:34;;;;;;;4.10;1.80;;;;;;;25.20;100.00;100043.34;4942892;28;20240;-76
2023/08/10 09:35:01;;;;;;;6.22;2.65;;;;;;;25.11;100.00;99965.41;4950469;28;20331;-76
2023/08/10 09:37:28;;;;;;;4.35;1.80;;;;;;;24.09;100.00;99741.47;4957193;28;20320;-77
2023/08/10 09:39:57;;;;;;;10.85;4.10;;;;;;;25.49;100.00;100040.78;4959946;28;20235;-76
2023/08/10 09:42:24;;;;;;;6.03;2.63;;;;;;;25.75;100.00;99958.91;4945598;28;20234;-77
2023/08/10 09:44:52;;;;;;;9.07;3.55;;;;;;;25.58;100.00;99818.22;4947023;28;20256;-77
2023/08/10 09:47:19;;;;;;;5.85;2.58;;;;;;;25.81;100.00;99747.25;4947887;28;20236;-77
2023/08/10 09:49:56;;;;;;;5.80;2.42;;;;;;;24.81;100.00;99572.31;4934764;28;20236;-76
2023/08/10 09:52:23;;;;;;;4.88;2.28;;;;;;;25.30;100.00;99588.16;4980760;28;20226;-76
2023/08/10 09:54:51;;;;;;;9.77;3.63;;;;;;;26.11;100.00;99816.69;4955510;28;20236;-78
2023/08/10 09:57:18;;;;;;;5.40;2.38;;;;;;;26.58;100.00;99737.66;4946225;28;20229;-77
2023/08/10 09:59:46;;;;;;;8.63;3.13;;;;;;;26.09;100.00;99694.84;4903395;28;20239;-77
2023/08/10 10:02:14;;;;;;;9.05;3.70;;;;;;;25.43;100.00;99591.78;4949601;28;20232;-77
2023/08/10 10:04:42;;;;;;;8.05;3.45;;;;;;;24.86;100.00;99416.06;4959045;28;20256;-75
2023/08/10 10:07:13;;;;;;;7.47;3.20;;;;;;;24.93;100.00;99381.34;4960776;28;20224;-77
2023/08/10 10:09:43;;;;;;;5.80;2.78;;;;;;;25.26;100.00;99380.94;4959403;28;20255;-78
2023/08/10 10:12:11;;;;;;;7.53;2.85;;;;;;;25.99;100.00;99527.56;4988937;28;20236;-77
2023/08/10 10:14:43;;;;;;;6.65;2.92;;;;;;;25.97;100.00;99429.28;4962544;28;20228;-77
2023/08/10 10:17:11;;;;;;;6.65;2.42;;;;;;;26.29;100.00;99487.53;4945430;28;20247;-77
2023/08/10 10:19:39;;;;;;;4.43;1.95;;;;;;;25.39;100.00;99389.97;4958098;28;20232;-77
2023/08/10 10:22:06;;;;;;;5.28;2.22;;;;;;;26.20;100.00;99496.31;4944571;28;20239;-78
2023/08/10 10:24:34;;;;;;;5.50;2.38;;;;;;;25.34;100.00;99219.78;4925713;28;20244;-77
2023/08/10 10:27:08;;;;;;;8.85;3.67;;;;;;;26.51;100.00;99448.06;4976629;28;20910;-75
2023/08/10 10:29:45;;;;;;;3.78;1.95;;;;;;;25.60;100.00;99211.66;4954210;28;20295;-77
2023/08/10 10:32:15;;;;;;;4.30;2.00;;;;;;;25.98;100.00;99220.59;4938644;28;20236;-75
2023/08/10 10:34:43;;;;;;;7.80;3.05;;;;;;;25.78;100.00;99120.97;4944874;28;20244;-74
2023/08/10 10:37:16;;;;;;;6.03;2.72;;;;;;;27.29;100.00;99506.50;4953841;28;21010;-75
2023/08/10 10:39:45;;;;;;;9.30;3.13;;;;;;;28.23;100.00;99438.63;4949685;28;20240;-75
2023/08/10 10:42:15;;;;;;;11.57;3.65;;;;;;;28.00;100.00;99344.41;4947927;28;20236;-77
2023/08/10 10:44:57;;;;;;;9.20;2.63;;;;;;;28.28;100.00;99326.78;4937150;28;20225;-77
2023/08/10 10:47:34;;;;;;;6.22;2.38;;;;;;;26.70;100.00;98993.72;4938000;28;20229;-77
2023/08/10 10:50:17;;;;;;;10.95;3.72;;;;;;;27.47;100.00;99134.13;4941574;28;20315;-77
2023/08/10 10:52:57;;;;;;;6.97;2.25;;;;;;;27.20;100.00;99086.47;4960004;28;20247;-77
2023/08/10 10:55:44;;;;;;;6.53;2.03;;;;;;;26.97;100.00;98987.94;4937636;28;20699;-77
2023/08/10 10:58:13;;;;;;;8.95;2.95;;;;;;;27.38;100.00;99008.16;4930578;28;20236;-78
2023/08/10 11:00:41;;;;;;;8.55;2.72;;;;;;;28.11;100.00;99215.81;4954769;28;20233;-77
2023/08/10 11:03:10;;;;;;;14.82;4.60;;;;;;;27.50;97.65;98924.81;4953290;28;20300;-78
2023/08/10 11:05:37;;;;;;;14.77;4.22;;;;;;;27.00;100.00;98914.44;4940575;28;20330;-78
2023/08/10 11:08:08;;;;;;;13.00;4.15;;;;;;;26.60;100.00;98857.16;4939162;28;20280;-78
2023/08/10 11:10:36;;;;;;;10.70;3.15;;;;;;;27.65;100.00;99109.06;4942606;28;20229;-78
2023/08/10 11:13:07;;;;;;;11.80;3.55;;;;;;;28.78;98.99;99079.59;4944954;28;20326;-78
2023/08/10 11:15:34;;;;;;;10.35;3.10;;;;;;;28.29;91.56;98831.88;4965088;28;20239;-78
2023/08/10 11:18:09;;;;;;;12.57;3.90;;;;;;;28.21;92.84;98790.03;4960616;28;20239;-78
2023/08/10 11:20:41;;;;;;;16.45;5.05;;;;;;;28.47;92.38;98818.47;4962873;28;20224;-75